TGL16LR LFBZ-LICC
Flight info
| Callsign | TGL16LR |
|---|---|
| Flight time | 2h 6m |
| Altitude | 36000 |
| Route | SOVOS G17 ORTEZ DCT TBO DCT PERDU N862 POSSY M601 BCN N725 ORKUM M603 ELSAG DCT ALG/N0427F370 DCT QUENN DCT RONAB DCT BEKIV/N0341F190 M871 LIBRO |
| Aircraft | A320/M-SDE3FGHIRWY/LB1 |
Departure
| Time | 2026-05-05 12:41 |
|---|---|
| Airport | Biarritz Pays Basque airport (LFBZ) |
Arrival
| Time | 2026-05-05 14:47 |
|---|---|
| Airport | Catania-Fontanarossa Airport (LICC) |
| Time | Latitude | Longitude | Altitude | Speed | Heading |
|---|---|---|---|---|---|
| 2026-05-05 12:13 | 43.47120 | -1.53112 | 245 ft | 0 kts | 19° |
| 2026-05-05 12:31 | 43.47113 | -1.53115 | 245 ft | 4 kts | 19° |
| 2026-05-05 12:31 | 43.47088 | -1.53129 | 245 ft | 4 kts | 23° |
| 2026-05-05 12:31 | 43.47063 | -1.53144 | 245 ft | 4 kts | 29° |
| 2026-05-05 12:32 | 43.47040 | -1.53164 | 245 ft | 4 kts | 40° |
| 2026-05-05 12:32 | 43.47031 | -1.53175 | 245 ft | 0 kts | 46° |
| 2026-05-05 12:34 | 43.47035 | -1.53169 | 245 ft | 4 kts | 49° |
| 2026-05-05 12:34 | 43.47052 | -1.53104 | 245 ft | 9 kts | 85° |
| 2026-05-05 12:34 | 43.47054 | -1.53023 | 245 ft | 9 kts | 89° |
| 2026-05-05 12:34 | 43.47053 | -1.52928 | 245 ft | 10 kts | 97° |
| 2026-05-05 12:35 | 43.47004 | -1.52860 | 245 ft | 11 kts | 130° |
| 2026-05-05 12:35 | 43.46992 | -1.52761 | 245 ft | 11 kts | 89° |
| 2026-05-05 12:35 | 43.46994 | -1.52639 | 245 ft | 15 kts | 89° |
| 2026-05-05 12:35 | 43.46996 | -1.52468 | 245 ft | 19 kts | 88° |
| 2026-05-05 12:36 | 43.46998 | -1.52286 | 243 ft | 18 kts | 88° |
| 2026-05-05 12:36 | 43.46949 | -1.52176 | 240 ft | 15 kts | 166° |
| 2026-05-05 12:36 | 43.46851 | -1.52160 | 239 ft | 13 kts | 139° |
| 2026-05-05 12:36 | 43.46840 | -1.52045 | 239 ft | 12 kts | 90° |
| 2026-05-05 12:37 | 43.46841 | -1.51937 | 239 ft | 11 kts | 88° |
| 2026-05-05 12:37 | 43.46843 | -1.51830 | 237 ft | 12 kts | 89° |
| 2026-05-05 12:37 | 43.46845 | -1.51715 | 236 ft | 12 kts | 89° |
| 2026-05-05 12:37 | 43.46846 | -1.51602 | 236 ft | 11 kts | 89° |
| 2026-05-05 12:38 | 43.46848 | -1.51503 | 236 ft | 9 kts | 89° |
| 2026-05-05 12:38 | 43.46849 | -1.51417 | 236 ft | 9 kts | 89° |
| 2026-05-05 12:38 | 43.46849 | -1.51319 | 234 ft | 16 kts | 90° |
| 2026-05-05 12:38 | 43.46852 | -1.51141 | 234 ft | 16 kts | 89° |
| 2026-05-05 12:39 | 43.46874 | -1.51011 | 237 ft | 10 kts | 67° |
| 2026-05-05 12:39 | 43.46862 | -1.50956 | 237 ft | 6 kts | 164° |
| 2026-05-05 12:39 | 43.46850 | -1.50989 | 236 ft | 4 kts | 285° |
| 2026-05-05 12:39 | 43.46851 | -1.50999 | 236 ft | 0 kts | 271° |
| 2026-05-05 12:40 | 43.46851 | -1.51001 | 236 ft | 4 kts | 271° |
| 2026-05-05 12:40 | 43.46848 | -1.51421 | 236 ft | 81 kts | 269° |
| 2026-05-05 12:40 | 43.46834 | -1.52487 | 257 ft | 137 kts | 270° |
| 2026-05-05 12:41 | 43.46811 | -1.53798 | 924 ft | 136 kts | 271° |
| 2026-05-05 12:41 | 43.46794 | -1.55102 | 1739 ft | 137 kts | 270° |
| 2026-05-05 12:41 | 43.46780 | -1.56463 | 2228 ft | 151 kts | 270° |
| 2026-05-05 12:41 | 43.46761 | -1.57891 | 2911 ft | 148 kts | 270° |
| 2026-05-05 12:42 | 43.46745 | -1.59311 | 3456 ft | 152 kts | 270° |
| 2026-05-05 12:42 | 43.46490 | -1.60723 | 4016 ft | 157 kts | 239° |
| 2026-05-05 12:42 | 43.45648 | -1.61710 | 4579 ft | 166 kts | 206° |
| 2026-05-05 12:42 | 43.44480 | -1.61884 | 5105 ft | 177 kts | 171° |
| 2026-05-05 12:43 | 43.43414 | -1.61017 | 5645 ft | 185 kts | 130° |
| 2026-05-05 12:43 | 43.42863 | -1.59386 | 6066 ft | 197 kts | 108° |
| 2026-05-05 12:43 | 43.42434 | -1.57489 | 6262 ft | 220 kts | 107° |
| 2026-05-05 12:43 | 43.41968 | -1.55374 | 6465 ft | 244 kts | 106° |
| 2026-05-05 12:44 | 43.41471 | -1.53083 | 7055 ft | 252 kts | 106° |
| 2026-05-05 12:44 | 43.40958 | -1.50758 | 7812 ft | 256 kts | 108° |
| 2026-05-05 12:44 | 43.40430 | -1.48405 | 8605 ft | 259 kts | 108° |
| 2026-05-05 12:44 | 43.39888 | -1.46026 | 9390 ft | 264 kts | 110° |
| 2026-05-05 12:45 | 43.38949 | -1.43768 | 9733 ft | 283 kts | 136° |
| 2026-05-05 12:45 | 43.37467 | -1.41901 | 10208 ft | 298 kts | 141° |
| 2026-05-05 12:45 | 43.35858 | -1.39940 | 10467 ft | 321 kts | 140° |
| 2026-05-05 12:45 | 43.34149 | -1.37855 | 10967 ft | 333 kts | 140° |
| 2026-05-05 12:46 | 43.32407 | -1.35719 | 11694 ft | 338 kts | 140° |
| 2026-05-05 12:46 | 43.30650 | -1.33553 | 12462 ft | 341 kts | 140° |
| 2026-05-05 12:46 | 43.28878 | -1.31365 | 13220 ft | 344 kts | 140° |
| 2026-05-05 12:46 | 43.27091 | -1.29157 | 13960 ft | 347 kts | 140° |
| 2026-05-05 12:47 | 43.25285 | -1.26930 | 14609 ft | 350 kts | 140° |
| 2026-05-05 12:47 | 43.23465 | -1.24691 | 15270 ft | 353 kts | 140° |
| 2026-05-05 12:47 | 43.21631 | -1.22433 | 15920 ft | 356 kts | 141° |
| 2026-05-05 12:47 | 43.19782 | -1.20160 | 16536 ft | 359 kts | 141° |
| 2026-05-05 12:48 | 43.17913 | -1.17872 | 17166 ft | 362 kts | 141° |
| 2026-05-05 12:48 | 43.16026 | -1.15566 | 17805 ft | 365 kts | 141° |
| 2026-05-05 12:48 | 43.14127 | -1.13243 | 18427 ft | 367 kts | 141° |
| 2026-05-05 12:48 | 43.12215 | -1.10902 | 19019 ft | 369 kts | 141° |
| 2026-05-05 12:49 | 43.10293 | -1.08551 | 19566 ft | 372 kts | 141° |
| 2026-05-05 12:49 | 43.08356 | -1.06189 | 20113 ft | 374 kts | 141° |
| 2026-05-05 12:49 | 43.06406 | -1.03816 | 20661 ft | 376 kts | 141° |
| 2026-05-05 12:49 | 43.04443 | -1.01427 | 21156 ft | 379 kts | 141° |
| 2026-05-05 12:50 | 43.02471 | -0.99029 | 21643 ft | 381 kts | 141° |
| 2026-05-05 12:50 | 43.00486 | -0.96613 | 22114 ft | 384 kts | 142° |
| 2026-05-05 12:50 | 42.98480 | -0.94172 | 22579 ft | 387 kts | 142° |
| 2026-05-05 12:50 | 42.96460 | -0.91720 | 23075 ft | 390 kts | 142° |
| 2026-05-05 12:51 | 42.94424 | -0.89251 | 23565 ft | 393 kts | 142° |
| 2026-05-05 12:51 | 42.92373 | -0.86767 | 23969 ft | 396 kts | 142° |
| 2026-05-05 12:51 | 42.90311 | -0.84269 | 24353 ft | 399 kts | 142° |
| 2026-05-05 12:51 | 42.88229 | -0.81748 | 24737 ft | 402 kts | 142° |
| 2026-05-05 12:52 | 42.86128 | -0.79208 | 25112 ft | 405 kts | 142° |
| 2026-05-05 12:52 | 42.84017 | -0.76656 | 25487 ft | 407 kts | 143° |
| 2026-05-05 12:52 | 42.81889 | -0.74090 | 25824 ft | 410 kts | 144° |
| 2026-05-05 12:52 | 42.79746 | -0.71512 | 26199 ft | 412 kts | 143° |
| 2026-05-05 12:53 | 42.77587 | -0.68916 | 26555 ft | 415 kts | 144° |
| 2026-05-05 12:53 | 42.75412 | -0.66305 | 26916 ft | 418 kts | 144° |
| 2026-05-05 12:53 | 42.73226 | -0.63678 | 27285 ft | 421 kts | 144° |
| 2026-05-05 12:53 | 42.71024 | -0.61037 | 27651 ft | 423 kts | 144° |
| 2026-05-05 12:54 | 42.66577 | -0.55713 | 28346 ft | 429 kts | 144° |
| 2026-05-05 12:54 | 42.64335 | -0.53023 | 28688 ft | 432 kts | 144° |
| 2026-05-05 12:54 | 42.62075 | -0.50317 | 29020 ft | 434 kts | 145° |
| 2026-05-05 12:55 | 42.59800 | -0.47600 | 29293 ft | 437 kts | 146° |
| 2026-05-05 12:55 | 42.57509 | -0.44868 | 29615 ft | 440 kts | 146° |
| 2026-05-05 12:55 | 42.55202 | -0.42123 | 29934 ft | 442 kts | 146° |
| 2026-05-05 12:55 | 42.52914 | -0.39399 | 30196 ft | 445 kts | 146° |
| 2026-05-05 12:56 | 42.50585 | -0.36626 | 30439 ft | 447 kts | 146° |
| 2026-05-05 12:56 | 42.48246 | -0.33844 | 30684 ft | 449 kts | 146° |
| 2026-05-05 12:56 | 42.45889 | -0.31046 | 30928 ft | 451 kts | 146° |
| 2026-05-05 12:56 | 42.43519 | -0.28240 | 31159 ft | 453 kts | 146° |
| 2026-05-05 12:57 | 42.41147 | -0.25432 | 31485 ft | 453 kts | 146° |
| 2026-05-05 12:57 | 42.38775 | -0.22622 | 31787 ft | 453 kts | 146° |
| 2026-05-05 12:57 | 42.36405 | -0.19816 | 32102 ft | 453 kts | 146° |
| 2026-05-05 12:57 | 42.34028 | -0.17008 | 32405 ft | 453 kts | 146° |
| 2026-05-05 12:58 | 42.31654 | -0.14209 | 32722 ft | 453 kts | 146° |
| 2026-05-05 12:58 | 42.29274 | -0.11409 | 33041 ft | 454 kts | 146° |
| 2026-05-05 12:58 | 42.26898 | -0.08608 | 33391 ft | 454 kts | 146° |
| 2026-05-05 12:58 | 42.24520 | -0.05806 | 33730 ft | 453 kts | 146° |
| 2026-05-05 12:59 | 42.22144 | -0.03015 | 34044 ft | 453 kts | 146° |
| 2026-05-05 12:59 | 42.19761 | -0.00223 | 34296 ft | 453 kts | 146° |
| 2026-05-05 12:59 | 42.17382 | 0.02559 | 34573 ft | 452 kts | 147° |
| 2026-05-05 13:00 | 42.12635 | 0.08098 | 34944 ft | 449 kts | 147° |
| 2026-05-05 13:00 | 42.10285 | 0.10842 | 34967 ft | 445 kts | 147° |
| 2026-05-05 13:01 | 42.04311 | 0.20547 | 34962 ft | 466 kts | 123° |
| 2026-05-05 13:01 | 42.02867 | 0.24447 | 34961 ft | 466 kts | 123° |
| 2026-05-05 13:01 | 41.99954 | 0.32235 | 34953 ft | 466 kts | 124° |
| 2026-05-05 13:02 | 41.97021 | 0.39997 | 34907 ft | 466 kts | 125° |
| 2026-05-05 13:02 | 41.94087 | 0.47755 | 34917 ft | 466 kts | 125° |
| 2026-05-05 13:03 | 41.91160 | 0.55510 | 34927 ft | 466 kts | 125° |
| 2026-05-05 13:03 | 41.88225 | 0.63262 | 34933 ft | 466 kts | 125° |
| 2026-05-05 13:04 | 41.85276 | 0.70999 | 34939 ft | 466 kts | 125° |
| 2026-05-05 13:04 | 41.82326 | 0.78738 | 34919 ft | 465 kts | 126° |
| 2026-05-05 13:05 | 41.79382 | 0.86456 | 34929 ft | 465 kts | 126° |
| 2026-05-05 13:05 | 41.76429 | 0.94155 | 34902 ft | 464 kts | 126° |
| 2026-05-05 13:06 | 41.73467 | 1.01830 | 34921 ft | 464 kts | 126° |
| 2026-05-05 13:06 | 41.70503 | 1.09492 | 34926 ft | 464 kts | 126° |
| 2026-05-05 13:07 | 41.67545 | 1.17153 | 34901 ft | 463 kts | 127° |
| 2026-05-05 13:07 | 41.64584 | 1.24801 | 34906 ft | 463 kts | 127° |
| 2026-05-05 13:08 | 41.61621 | 1.32432 | 34908 ft | 462 kts | 127° |
| 2026-05-05 13:08 | 41.58648 | 1.40056 | 34911 ft | 462 kts | 127° |
| 2026-05-05 13:09 | 41.55676 | 1.47654 | 34914 ft | 462 kts | 127° |
| 2026-05-05 13:09 | 41.52699 | 1.55256 | 34893 ft | 462 kts | 127° |
| 2026-05-05 13:10 | 41.49705 | 1.62886 | 34921 ft | 465 kts | 127° |
| 2026-05-05 13:10 | 41.46703 | 1.70516 | 34924 ft | 464 kts | 127° |
| 2026-05-05 13:11 | 41.43714 | 1.78074 | 34928 ft | 464 kts | 127° |
| 2026-05-05 13:11 | 41.40705 | 1.85674 | 34928 ft | 463 kts | 127° |
| 2026-05-05 13:12 | 41.37698 | 1.93259 | 34910 ft | 463 kts | 127° |
| 2026-05-05 13:12 | 41.34687 | 2.00845 | 34923 ft | 464 kts | 127° |
| 2026-05-05 13:13 | 41.31676 | 2.08436 | 34926 ft | 468 kts | 124° |
| 2026-05-05 13:13 | 41.30475 | 2.12515 | 34932 ft | 480 kts | 115° |
| 2026-05-05 13:13 | 41.29692 | 2.16872 | 34935 ft | 486 kts | 110° |
| 2026-05-05 13:14 | 41.28271 | 2.25672 | 34936 ft | 487 kts | 110° |
| 2026-05-05 13:14 | 41.26828 | 2.34459 | 34917 ft | 486 kts | 110° |
| 2026-05-05 13:15 | 41.25611 | 2.41750 | 34927 ft | 486 kts | 110° |
| 2026-05-05 13:15 | 41.24140 | 2.50526 | 34941 ft | 486 kts | 110° |
| 2026-05-05 13:16 | 41.22673 | 2.59287 | 34941 ft | 486 kts | 110° |
| 2026-05-05 13:16 | 41.21196 | 2.68039 | 34904 ft | 485 kts | 111° |
| 2026-05-05 13:17 | 41.19714 | 2.76779 | 34924 ft | 484 kts | 111° |
| 2026-05-05 13:17 | 41.18232 | 2.85496 | 34938 ft | 484 kts | 111° |
| 2026-05-05 13:18 | 41.16745 | 2.94194 | 34944 ft | 483 kts | 111° |
| 2026-05-05 13:18 | 41.15253 | 3.02889 | 34943 ft | 483 kts | 111° |
| 2026-05-05 13:19 | 41.13750 | 3.11564 | 34928 ft | 482 kts | 111° |
| 2026-05-05 13:19 | 41.12240 | 3.20235 | 34936 ft | 482 kts | 111° |
| 2026-05-05 13:20 | 41.10731 | 3.28882 | 34941 ft | 481 kts | 111° |
| 2026-05-05 13:20 | 41.09216 | 3.37519 | 34941 ft | 481 kts | 111° |
| 2026-05-05 13:21 | 41.07695 | 3.46155 | 34911 ft | 481 kts | 111° |
| 2026-05-05 13:21 | 41.06166 | 3.54773 | 34928 ft | 480 kts | 111° |
| 2026-05-05 13:22 | 41.04632 | 3.63388 | 34936 ft | 480 kts | 111° |
| 2026-05-05 13:22 | 41.03101 | 3.71991 | 34946 ft | 480 kts | 111° |
| 2026-05-05 13:23 | 41.01557 | 3.80586 | 34933 ft | 480 kts | 111° |
| 2026-05-05 13:23 | 41.00010 | 3.89170 | 34918 ft | 479 kts | 111° |
| 2026-05-05 13:24 | 40.98453 | 3.97747 | 34927 ft | 479 kts | 111° |
| 2026-05-05 13:24 | 40.96891 | 4.06308 | 34931 ft | 479 kts | 111° |
| 2026-05-05 13:25 | 40.95328 | 4.14818 | 34934 ft | 479 kts | 111° |
| 2026-05-05 13:25 | 40.93760 | 4.23367 | 34911 ft | 479 kts | 111° |
| 2026-05-05 13:26 | 40.92178 | 4.31926 | 34918 ft | 479 kts | 111° |
| 2026-05-05 13:26 | 40.90583 | 4.40476 | 34928 ft | 479 kts | 111° |
| 2026-05-05 13:27 | 40.88987 | 4.49030 | 34934 ft | 479 kts | 111° |
| 2026-05-05 13:27 | 40.87399 | 4.57588 | 34919 ft | 479 kts | 111° |
| 2026-05-05 13:28 | 40.85822 | 4.66151 | 34929 ft | 482 kts | 108° |
| 2026-05-05 13:28 | 40.84935 | 4.74992 | 34935 ft | 486 kts | 103° |
| 2026-05-05 13:29 | 40.84120 | 4.83856 | 34940 ft | 486 kts | 103° |
| 2026-05-05 13:29 | 40.83295 | 4.92727 | 34941 ft | 487 kts | 104° |
| 2026-05-05 13:30 | 40.82458 | 5.01592 | 34931 ft | 486 kts | 103° |
| 2026-05-05 13:30 | 40.81608 | 5.10445 | 34938 ft | 486 kts | 104° |
| 2026-05-05 13:31 | 40.80751 | 5.19295 | 34945 ft | 486 kts | 104° |
| 2026-05-05 13:31 | 40.79895 | 5.28141 | 34946 ft | 486 kts | 104° |
| 2026-05-05 13:32 | 40.79042 | 5.36975 | 34922 ft | 485 kts | 103° |
| 2026-05-05 13:32 | 40.78185 | 5.45806 | 34924 ft | 485 kts | 103° |
| 2026-05-05 13:33 | 40.77323 | 5.54631 | 34920 ft | 485 kts | 104° |
| 2026-05-05 13:33 | 40.76438 | 5.63441 | 34926 ft | 484 kts | 104° |
| 2026-05-05 13:34 | 40.75549 | 5.72249 | 34930 ft | 484 kts | 104° |
| 2026-05-05 13:34 | 40.74658 | 5.81047 | 34946 ft | 484 kts | 104° |
| 2026-05-05 13:35 | 40.73761 | 5.89845 | 34946 ft | 484 kts | 104° |
| 2026-05-05 13:35 | 40.72857 | 5.98633 | 34958 ft | 484 kts | 104° |
| 2026-05-05 13:36 | 40.71945 | 6.07413 | 34958 ft | 484 kts | 104° |
| 2026-05-05 13:36 | 40.71028 | 6.16197 | 34946 ft | 483 kts | 104° |
| 2026-05-05 13:37 | 40.70109 | 6.24970 | 34955 ft | 483 kts | 104° |
| 2026-05-05 13:37 | 40.69179 | 6.33734 | 34957 ft | 483 kts | 104° |
| 2026-05-05 13:38 | 40.68239 | 6.42490 | 34959 ft | 483 kts | 104° |
| 2026-05-05 13:38 | 40.67296 | 6.51247 | 34948 ft | 483 kts | 104° |
| 2026-05-05 13:39 | 40.66361 | 6.59955 | 34953 ft | 484 kts | 104° |
| 2026-05-05 13:39 | 40.65414 | 6.68727 | 34956 ft | 484 kts | 104° |
| 2026-05-05 13:40 | 40.64444 | 6.77493 | 34960 ft | 484 kts | 104° |
| 2026-05-05 13:40 | 40.63465 | 6.86252 | 34949 ft | 484 kts | 104° |
| 2026-05-05 13:41 | 40.62486 | 6.95009 | 34958 ft | 484 kts | 104° |
| 2026-05-05 13:41 | 40.61508 | 7.03776 | 34959 ft | 484 kts | 104° |
| 2026-05-05 13:42 | 40.60521 | 7.12532 | 34961 ft | 484 kts | 104° |
| 2026-05-05 13:42 | 40.59523 | 7.21294 | 34971 ft | 484 kts | 104° |
| 2026-05-05 13:43 | 40.58514 | 7.30047 | 34970 ft | 484 kts | 104° |
| 2026-05-05 13:43 | 40.57497 | 7.38801 | 34971 ft | 484 kts | 104° |
| 2026-05-05 13:44 | 40.56616 | 7.47584 | 34972 ft | 489 kts | 96° |
| 2026-05-05 13:44 | 40.57126 | 7.56562 | 34970 ft | 494 kts | 86° |
| 2026-05-05 13:45 | 40.57919 | 7.65541 | 34962 ft | 494 kts | 87° |
| 2026-05-05 13:45 | 40.58680 | 7.74520 | 34971 ft | 494 kts | 87° |
| 2026-05-05 13:46 | 40.59437 | 7.83505 | 34973 ft | 494 kts | 87° |
| 2026-05-05 13:46 | 40.60189 | 7.92489 | 34981 ft | 494 kts | 87° |
| 2026-05-05 13:47 | 40.60936 | 8.01476 | 34969 ft | 494 kts | 86° |
| 2026-05-05 13:47 | 40.61683 | 8.10458 | 34985 ft | 493 kts | 87° |
| 2026-05-05 13:48 | 40.62410 | 8.19428 | 35006 ft | 492 kts | 89° |
| 2026-05-05 13:48 | 40.62038 | 8.28313 | 34991 ft | 482 kts | 107° |
| 2026-05-05 13:49 | 40.60432 | 8.36842 | 34963 ft | 480 kts | 109° |
| 2026-05-05 13:49 | 40.58811 | 8.45369 | 34976 ft | 481 kts | 109° |
| 2026-05-05 13:50 | 40.57174 | 8.53887 | 34984 ft | 480 kts | 109° |
| 2026-05-05 13:50 | 40.55524 | 8.62398 | 34988 ft | 480 kts | 109° |
| 2026-05-05 13:51 | 40.53869 | 8.70895 | 34989 ft | 480 kts | 109° |
| 2026-05-05 13:51 | 40.52227 | 8.79340 | 34980 ft | 480 kts | 109° |
| 2026-05-05 13:52 | 40.50569 | 8.87846 | 34986 ft | 480 kts | 109° |
| 2026-05-05 13:52 | 40.48894 | 8.96344 | 34988 ft | 481 kts | 109° |
| 2026-05-05 13:53 | 40.47211 | 9.04837 | 34990 ft | 480 kts | 109° |
| 2026-05-05 13:53 | 40.45525 | 9.13318 | 34976 ft | 480 kts | 109° |
| 2026-05-05 13:54 | 40.43834 | 9.21809 | 34990 ft | 480 kts | 109° |
| 2026-05-05 13:54 | 40.42143 | 9.30288 | 34991 ft | 480 kts | 109° |
| 2026-05-05 13:55 | 40.40444 | 9.38768 | 34987 ft | 480 kts | 109° |
| 2026-05-05 13:55 | 40.38726 | 9.47232 | 34986 ft | 480 kts | 109° |
| 2026-05-05 13:56 | 40.37008 | 9.55711 | 34978 ft | 482 kts | 109° |
| 2026-05-05 13:56 | 40.35287 | 9.64205 | 34978 ft | 483 kts | 109° |
| 2026-05-05 13:57 | 40.33562 | 9.72655 | 34987 ft | 483 kts | 109° |
| 2026-05-05 13:57 | 40.31804 | 9.81219 | 34991 ft | 484 kts | 109° |
| 2026-05-05 13:58 | 40.30059 | 9.89667 | 34992 ft | 483 kts | 109° |
| 2026-05-05 13:58 | 40.28295 | 9.98149 | 34995 ft | 483 kts | 109° |
| 2026-05-05 13:59 | 40.25656 | 10.10877 | 34998 ft | 483 kts | 109° |
| 2026-05-05 14:00 | 40.23292 | 10.22224 | 34992 ft | 483 kts | 108° |
| 2026-05-05 14:00 | 40.21226 | 10.32059 | 35006 ft | 482 kts | 109° |
| 2026-05-05 14:01 | 40.19437 | 10.40517 | 35018 ft | 482 kts | 109° |
| 2026-05-05 14:01 | 40.17648 | 10.48961 | 35020 ft | 482 kts | 109° |
| 2026-05-05 14:02 | 40.16142 | 10.56028 | 35017 ft | 482 kts | 109° |
| 2026-05-05 14:02 | 40.14348 | 10.64455 | 35022 ft | 481 kts | 108° |
| 2026-05-05 14:03 | 40.12566 | 10.72814 | 35028 ft | 480 kts | 108° |
| 2026-05-05 14:03 | 40.10760 | 10.81207 | 35035 ft | 480 kts | 108° |
| 2026-05-05 14:04 | 40.08949 | 10.89599 | 35042 ft | 480 kts | 109° |
| 2026-05-05 14:04 | 40.07138 | 10.97977 | 35042 ft | 480 kts | 109° |
| 2026-05-05 14:05 | 40.05319 | 11.06355 | 35046 ft | 479 kts | 109° |
| 2026-05-05 14:05 | 40.03493 | 11.14723 | 35044 ft | 479 kts | 109° |
| 2026-05-05 14:06 | 40.01667 | 11.23081 | 35043 ft | 479 kts | 109° |
| 2026-05-05 14:06 | 39.99836 | 11.31437 | 35031 ft | 479 kts | 109° |
| 2026-05-05 14:07 | 39.97998 | 11.39777 | 35036 ft | 478 kts | 109° |
| 2026-05-05 14:07 | 39.96149 | 11.48107 | 35045 ft | 478 kts | 109° |
| 2026-05-05 14:08 | 39.94297 | 11.56434 | 35044 ft | 478 kts | 109° |
| 2026-05-05 14:08 | 39.92439 | 11.64751 | 35045 ft | 478 kts | 109° |
| 2026-05-05 14:09 | 39.90585 | 11.73061 | 35040 ft | 477 kts | 109° |
| 2026-05-05 14:09 | 39.88693 | 11.81336 | 35046 ft | 476 kts | 112° |
| 2026-05-05 14:10 | 39.87364 | 11.85258 | 35049 ft | 471 kts | 123° |
| 2026-05-05 14:10 | 39.85606 | 11.88820 | 35031 ft | 465 kts | 132° |
| 2026-05-05 14:10 | 39.81053 | 11.94589 | 35044 ft | 452 kts | 150° |
| 2026-05-05 14:11 | 39.75921 | 11.99298 | 35037 ft | 451 kts | 150° |
| 2026-05-05 14:11 | 39.70794 | 12.04008 | 35043 ft | 451 kts | 150° |
| 2026-05-05 14:12 | 39.65669 | 12.08722 | 35033 ft | 451 kts | 150° |
| 2026-05-05 14:12 | 39.60549 | 12.13417 | 35042 ft | 451 kts | 150° |
| 2026-05-05 14:13 | 39.55458 | 12.18071 | 35039 ft | 451 kts | 150° |
| 2026-05-05 14:13 | 39.50297 | 12.22778 | 35051 ft | 450 kts | 150° |
| 2026-05-05 14:14 | 39.45203 | 12.27402 | 35047 ft | 450 kts | 150° |
| 2026-05-05 14:14 | 39.40073 | 12.32056 | 35048 ft | 450 kts | 150° |
| 2026-05-05 14:15 | 39.34950 | 12.36709 | 35032 ft | 450 kts | 150° |
| 2026-05-05 14:15 | 39.29824 | 12.41369 | 35037 ft | 451 kts | 150° |
| 2026-05-05 14:16 | 39.24685 | 12.46027 | 35033 ft | 452 kts | 150° |
| 2026-05-05 14:16 | 39.19524 | 12.50679 | 35035 ft | 453 kts | 150° |
| 2026-05-05 14:17 | 39.14349 | 12.55335 | 35033 ft | 454 kts | 150° |
| 2026-05-05 14:17 | 39.09163 | 12.59992 | 35022 ft | 454 kts | 150° |
| 2026-05-05 14:18 | 39.03980 | 12.64645 | 35036 ft | 454 kts | 150° |
| 2026-05-05 14:18 | 38.98793 | 12.69296 | 35042 ft | 455 kts | 150° |
| 2026-05-05 14:19 | 38.93603 | 12.73940 | 35046 ft | 455 kts | 150° |
| 2026-05-05 14:19 | 38.88405 | 12.78577 | 35053 ft | 455 kts | 150° |
| 2026-05-05 14:20 | 38.83196 | 12.83223 | 35034 ft | 456 kts | 150° |
| 2026-05-05 14:20 | 38.77976 | 12.87865 | 35038 ft | 457 kts | 150° |
| 2026-05-05 14:21 | 38.72734 | 12.92503 | 35049 ft | 457 kts | 150° |
| 2026-05-05 14:21 | 38.67499 | 12.97135 | 35054 ft | 458 kts | 150° |
| 2026-05-05 14:22 | 38.62289 | 13.01747 | 35059 ft | 458 kts | 150° |
| 2026-05-05 14:22 | 38.57050 | 13.06383 | 35053 ft | 458 kts | 150° |
| 2026-05-05 14:23 | 38.51800 | 13.11005 | 35054 ft | 458 kts | 150° |
| 2026-05-05 14:23 | 38.46556 | 13.15615 | 35056 ft | 458 kts | 150° |
| 2026-05-05 14:24 | 38.43928 | 13.17925 | 34950 ft | 459 kts | 150° |
| 2026-05-05 14:24 | 38.41306 | 13.20229 | 34704 ft | 456 kts | 150° |
| 2026-05-05 14:24 | 38.38695 | 13.22524 | 34463 ft | 455 kts | 150° |
| 2026-05-05 14:24 | 38.36099 | 13.24806 | 34199 ft | 453 kts | 149° |
| 2026-05-05 14:25 | 38.33520 | 13.27067 | 33801 ft | 448 kts | 150° |
| 2026-05-05 14:25 | 38.30945 | 13.29315 | 33233 ft | 446 kts | 150° |
| 2026-05-05 14:25 | 38.28398 | 13.31537 | 32700 ft | 443 kts | 150° |
| 2026-05-05 14:25 | 38.25859 | 13.33752 | 32168 ft | 441 kts | 150° |
| 2026-05-05 14:26 | 38.23338 | 13.35952 | 31646 ft | 439 kts | 150° |
| 2026-05-05 14:26 | 38.20826 | 13.38144 | 31056 ft | 438 kts | 150° |
| 2026-05-05 14:26 | 38.18271 | 13.40364 | 29899 ft | 452 kts | 149° |
| 2026-05-05 14:26 | 38.15637 | 13.42647 | 28579 ft | 464 kts | 149° |
| 2026-05-05 14:27 | 38.12969 | 13.44964 | 27944 ft | 461 kts | 149° |
| 2026-05-05 14:27 | 38.10332 | 13.47260 | 27149 ft | 460 kts | 149° |
| 2026-05-05 14:27 | 38.07697 | 13.49553 | 26425 ft | 459 kts | 149° |
| 2026-05-05 14:27 | 38.05075 | 13.51831 | 25779 ft | 455 kts | 149° |
| 2026-05-05 14:28 | 38.02474 | 13.54090 | 25099 ft | 452 kts | 148° |
| 2026-05-05 14:28 | 37.99873 | 13.56344 | 24282 ft | 453 kts | 148° |
| 2026-05-05 14:28 | 37.97280 | 13.58588 | 23642 ft | 450 kts | 148° |
| 2026-05-05 14:28 | 37.94703 | 13.60814 | 22928 ft | 445 kts | 148° |
| 2026-05-05 14:29 | 37.92154 | 13.63011 | 22244 ft | 441 kts | 149° |
| 2026-05-05 14:29 | 37.89706 | 13.65283 | 21933 ft | 432 kts | 141° |
| 2026-05-05 14:29 | 37.87752 | 13.68032 | 21677 ft | 423 kts | 127° |
| 2026-05-05 14:29 | 37.86359 | 13.71267 | 21422 ft | 415 kts | 114° |
| 2026-05-05 14:30 | 37.85315 | 13.74626 | 21166 ft | 404 kts | 113° |
| 2026-05-05 14:30 | 37.84282 | 13.77937 | 20928 ft | 406 kts | 113° |
| 2026-05-05 14:30 | 37.83241 | 13.81254 | 20673 ft | 406 kts | 114° |
| 2026-05-05 14:30 | 37.82197 | 13.84569 | 20424 ft | 405 kts | 113° |
| 2026-05-05 14:31 | 37.81153 | 13.87873 | 20171 ft | 404 kts | 113° |
| 2026-05-05 14:31 | 37.80114 | 13.91165 | 19938 ft | 402 kts | 113° |
| 2026-05-05 14:31 | 37.79076 | 13.94448 | 19590 ft | 401 kts | 113° |
| 2026-05-05 14:31 | 37.78044 | 13.97715 | 19100 ft | 400 kts | 113° |
| 2026-05-05 14:32 | 37.77014 | 14.00968 | 18626 ft | 398 kts | 114° |
| 2026-05-05 14:32 | 37.75977 | 14.04210 | 18110 ft | 397 kts | 114° |
| 2026-05-05 14:32 | 37.74936 | 14.07427 | 17635 ft | 394 kts | 114° |
| 2026-05-05 14:32 | 37.73895 | 14.10616 | 17167 ft | 391 kts | 114° |
| 2026-05-05 14:33 | 37.72858 | 14.13779 | 16707 ft | 388 kts | 114° |
| 2026-05-05 14:33 | 37.71828 | 14.16917 | 16245 ft | 386 kts | 114° |
| 2026-05-05 14:33 | 37.70814 | 14.20015 | 16058 ft | 376 kts | 114° |
| 2026-05-05 14:33 | 37.69830 | 14.23031 | 15853 ft | 367 kts | 114° |
| 2026-05-05 14:34 | 37.68863 | 14.25989 | 15509 ft | 363 kts | 114° |
| 2026-05-05 14:34 | 37.67902 | 14.28928 | 15140 ft | 361 kts | 114° |
| 2026-05-05 14:34 | 37.66950 | 14.31843 | 14731 ft | 358 kts | 114° |
| 2026-05-05 14:34 | 37.66003 | 14.34739 | 14358 ft | 356 kts | 114° |
| 2026-05-05 14:35 | 37.65059 | 14.37613 | 13989 ft | 354 kts | 114° |
| 2026-05-05 14:35 | 37.64116 | 14.40473 | 13592 ft | 351 kts | 114° |
| 2026-05-05 14:35 | 37.63181 | 14.43311 | 13194 ft | 349 kts | 114° |
| 2026-05-05 14:35 | 37.62429 | 14.46205 | 12812 ft | 348 kts | 101° |
| 2026-05-05 14:36 | 37.62322 | 14.49198 | 12429 ft | 346 kts | 85° |
| 2026-05-05 14:36 | 37.62536 | 14.52207 | 12034 ft | 343 kts | 85° |
| 2026-05-05 14:36 | 37.62747 | 14.55177 | 11393 ft | 337 kts | 85° |
| 2026-05-05 14:36 | 37.62931 | 14.58104 | 10705 ft | 332 kts | 90° |
| 2026-05-05 14:37 | 37.62467 | 14.60884 | 10103 ft | 322 kts | 120° |
| 2026-05-05 14:37 | 37.61054 | 14.62885 | 9904 ft | 294 kts | 149° |
| 2026-05-05 14:37 | 37.59258 | 14.63797 | 9749 ft | 268 kts | 173° |
| 2026-05-05 14:37 | 37.57449 | 14.64132 | 9330 ft | 260 kts | 175° |
| 2026-05-05 14:38 | 37.55650 | 14.64431 | 8760 ft | 261 kts | 176° |
| 2026-05-05 14:38 | 37.53886 | 14.64715 | 8626 ft | 249 kts | 175° |
| 2026-05-05 14:38 | 37.52224 | 14.64971 | 8492 ft | 233 kts | 175° |
| 2026-05-05 14:38 | 37.50640 | 14.65173 | 8356 ft | 224 kts | 177° |
| 2026-05-05 14:39 | 37.49113 | 14.65354 | 8092 ft | 218 kts | 176° |
| 2026-05-05 14:39 | 37.47610 | 14.65531 | 7767 ft | 216 kts | 175° |
| 2026-05-05 14:39 | 37.46156 | 14.65994 | 7403 ft | 217 kts | 155° |
| 2026-05-05 14:39 | 37.44917 | 14.67056 | 7087 ft | 215 kts | 135° |
| 2026-05-05 14:40 | 37.44049 | 14.68559 | 6654 ft | 212 kts | 115° |
| 2026-05-05 14:40 | 37.43648 | 14.70321 | 6179 ft | 209 kts | 95° |
| 2026-05-05 14:40 | 37.43711 | 14.72135 | 5662 ft | 208 kts | 83° |
| 2026-05-05 14:40 | 37.43872 | 14.73955 | 5114 ft | 212 kts | 83° |
| 2026-05-05 14:41 | 37.44034 | 14.75802 | 4632 ft | 209 kts | 84° |
| 2026-05-05 14:41 | 37.44187 | 14.77554 | 4303 ft | 194 kts | 84° |
| 2026-05-05 14:41 | 37.44330 | 14.79195 | 4052 ft | 183 kts | 85° |
| 2026-05-05 14:41 | 37.44465 | 14.80747 | 3820 ft | 175 kts | 86° |
| 2026-05-05 14:42 | 37.44593 | 14.82232 | 3580 ft | 167 kts | 85° |
| 2026-05-05 14:42 | 37.44716 | 14.83651 | 3392 ft | 165 kts | 86° |
| 2026-05-05 14:42 | 37.44840 | 14.85106 | 3170 ft | 169 kts | 86° |
| 2026-05-05 14:42 | 37.44967 | 14.86566 | 2944 ft | 168 kts | 86° |
| 2026-05-05 14:43 | 37.45093 | 14.88031 | 2729 ft | 168 kts | 88° |
| 2026-05-05 14:43 | 37.45218 | 14.89481 | 2517 ft | 167 kts | 87° |
| 2026-05-05 14:43 | 37.45341 | 14.90922 | 2296 ft | 165 kts | 87° |
| 2026-05-05 14:43 | 37.45465 | 14.92369 | 2075 ft | 167 kts | 86° |
| 2026-05-05 14:44 | 37.45587 | 14.93790 | 1845 ft | 159 kts | 84° |
| 2026-05-05 14:44 | 37.45702 | 14.95138 | 1641 ft | 153 kts | 85° |
| 2026-05-05 14:44 | 37.45816 | 14.96480 | 1425 ft | 152 kts | 82° |
| 2026-05-05 14:44 | 37.45922 | 14.97725 | 1218 ft | 140 kts | 83° |
| 2026-05-05 14:45 | 37.46025 | 14.98920 | 1060 ft | 136 kts | 85° |
| 2026-05-05 14:45 | 37.46124 | 15.00084 | 906 ft | 134 kts | 83° |
| 2026-05-05 14:45 | 37.46222 | 15.01252 | 719 ft | 132 kts | 83° |
| 2026-05-05 14:45 | 37.46321 | 15.02399 | 557 ft | 131 kts | 83° |
| 2026-05-05 14:46 | 37.46412 | 15.03528 | 408 ft | 131 kts | 82° |
| 2026-05-05 14:46 | 37.46520 | 15.04704 | 206 ft | 134 kts | 84° |
| 2026-05-05 14:46 | 37.46613 | 15.05838 | 54 ft | 122 kts | 83° |
| 2026-05-05 14:46 | 37.46692 | 15.06767 | 29 ft | 85 kts | 84° |
| 2026-05-05 14:47 | 37.46738 | 15.07328 | 25 ft | 42 kts | 84° |
| 2026-05-05 14:47 | 37.46774 | 15.07594 | 24 ft | 24 kts | 71° |
| 2026-05-05 14:47 | 37.46846 | 15.07753 | 23 ft | 13 kts | 54° |
| 2026-05-05 14:47 | 37.46917 | 15.07801 | 22 ft | 13 kts | 327° |
| 2026-05-05 14:48 | 37.46937 | 15.07738 | 22 ft | 11 kts | 267° |
| 2026-05-05 14:48 | 37.46929 | 15.07649 | 23 ft | 9 kts | 263° |
| 2026-05-05 14:48 | 37.46922 | 15.07573 | 26 ft | 8 kts | 263° |
| 2026-05-05 14:48 | 37.46914 | 15.07471 | 24 ft | 11 kts | 264° |
| 2026-05-05 14:49 | 37.46909 | 15.07411 | 24 ft | 10 kts | 264° |
| 2026-05-05 14:49 | 37.46902 | 15.07333 | 25 ft | 8 kts | 264° |
| 2026-05-05 14:49 | 37.46896 | 15.07254 | 28 ft | 10 kts | 263° |
| 2026-05-05 14:49 | 37.46887 | 15.07153 | 26 ft | 13 kts | 264° |
| 2026-05-05 14:50 | 37.46878 | 15.07030 | 27 ft | 16 kts | 264° |
| 2026-05-05 14:50 | 37.46865 | 15.06890 | 28 ft | 16 kts | 263° |
| 2026-05-05 14:50 | 37.46853 | 15.06743 | 29 ft | 18 kts | 264° |
| 2026-05-05 14:50 | 37.46843 | 15.06619 | 29 ft | 11 kts | 264° |
| 2026-05-05 14:51 | 37.46856 | 15.06559 | 30 ft | 6 kts | 343° |
| 2026-05-05 14:51 | 37.46906 | 15.06563 | 30 ft | 9 kts | 18° |
| 2026-05-05 14:51 | 37.46937 | 15.06576 | 30 ft | 0 kts | 18° |